Latest Weather Observations for Puckapunyal West (Defence)

IDV60801

Issued at 4:32 pm EST Sunday 18 August 2019 (issued every 10 minutes, with the page automatically refreshed every 10 minutes)

About weather observations | Map of weather stations | Latest weather observations for VIC | Other Formats
Station Details ID: 088166 Name: PUCKAPUNYAL WEST (DEFENCE) Lat: -37.02 Lon: 144.85 Height: 293.0 m
Data from the previous 72 hours. | See also: Recent months at Puckapunyal West (Defence)
Date/Time
EST
Temp
°C
App
Temp
°C
Dew
Point
°C
Rel
Hum
%
Delta-T
°C
Wind Press
QNH
hPa
Press
MSL
hPa
Rain since
9am
mm
Dir  Spd
km/h
Gust
km/h
Spd
kts
Gust
kts
18/04:30pm 7.6 1.4 6.1 90 0.7 NW 28 48 15 26 - - 5.8
18/04:28pm 7.5 1.3 6.3 92 0.6 NNW 28 48 15 26 - - 5.8
18/04:00pm 7.8 2.4 6.3 90 0.7 NNW 24 39 13 21 - - 4.0
18/03:30pm 8.7 3.9 7.3 91 0.7 NW 22 46 12 25 - - 2.6
18/03:00pm 9.3 4.8 6.9 85 1.1 NW 20 33 11 18 - - 1.0
18/02:30pm 11.9 5.9 5.3 64 3.1 NW 26 35 14 19 - - 0.0
18/02:00pm 13.0 8.0 4.7 57 3.9 NNW 20 33 11 18 - - 0.0
18/01:30pm 13.7 9.1 5.8 59 3.8 NNW 19 30 10 16 - - 0.0
18/01:00pm 13.1 7.1 5.5 60 3.6 NNW 26 41 14 22 - - 0.0
18/12:30pm 14.0 8.4 5.4 56 4.1 N 24 33 13 18 - - 0.0
18/12:00pm 13.6 8.0 5.5 58 3.9 N 24 39 13 21 - - 0.0
18/11:30am 12.7 6.6 4.9 59 3.7 N 26 39 14 21 - - 0.0
18/11:00am 12.3 7.8 6.8 69 2.7 NNE 20 33 11 18 - - 0.0
18/10:30am 11.7 7.0 6.2 69 2.6 NNE 20 35 11 19 - - 0.0
18/10:00am 11.3 6.5 5.4 67 2.8 NNE 20 32 11 17 - - 0.0
18/09:30am 11.2 6.3 5.1 66 2.8 NE 20 35 11 19 - - 0.0
18/09:00am 10.7 5.8 5.3 69 2.5 NE 20 33 11 18 - - 0.0
18/08:30am 10.0 6.0 5.0 71 2.3 N 15 26 8 14 - - 0.0
18/08:00am 9.6 5.7 5.2 74 2.0 NE 15 24 8 13 - - 0.0
18/07:30am 8.8 5.7 5.4 79 1.6 NNE 11 15 6 8 - - 0.0
18/07:00am 8.2 5.9 5.7 84 1.1 NE 7 20 4 11 - - 0.0
18/06:30am 7.4 5.3 5.9 90 0.7 NNE 6 11 3 6 - - 0.0
18/06:00am 6.8 4.7 5.6 92 0.5 NNE 6 11 3 6 - - 0.0
18/05:30am 6.6 4.4 5.4 92 0.5 NNE 6 9 3 5 - - 0.0
18/05:00am 6.5 4.2 5.6 94 0.4 N 7 15 4 8 - - 0.0
18/04:30am 5.8 3.6 5.4 97 0.2 E 6 11 3 6 - - 0.0
18/04:00am 5.6 4.5 5.2 97 0.2 CALM 0 0 0 0 - - 0.0
18/03:30am 5.7 4.3 5.4 98 0.1 NE 2 6 1 3 - - 0.0
18/03:00am 5.4 4.3 5.1 98 0.1 CALM 0 0 0 0 - - 0.0
18/02:30am 5.6 4.2 5.3 98 0.1 E 2 6 1 3 - - 0.0
18/02:00am 5.5 4.4 5.1 97 0.2 CALM 0 0 0 0 - - 0.0
18/01:30am 5.7 3.9 5.3 97 0.2 N 4 6 2 3 - - 0.0
18/01:00am 5.6 3.3 5.0 96 0.3 ENE 6 7 3 4 - - 0.0
18/12:30am 5.7 3.8 5.0 95 0.3 E 4 7 2 4 - - 0.0
18/12:00am 6.4 4.2 5.5 94 0.4 NNW 6 9 3 5 - - 0.0
 
Date/Time
EST
Temp
°C
App
Temp
°C
Dew
Point
°C
Rel
Hum
%
Delta-T
°C
Wind Press
QNH
hPa
Press
MSL
hPa
Rain since
9am
mm
Dir  Spd
km/h
Gust
km/h
Spd
kts
Gust
kts
17/11:30pm 5.8 4.6 4.8 93 0.4 CALM 0 0 0 0 - - 0.0
17/11:00pm 6.3 4.8 4.9 91 0.6 N 2 6 1 3 - - 0.0
17/10:30pm 7.2 4.7 5.0 86 1.0 N 7 11 4 6 - - 0.0
17/10:00pm 7.7 5.0 5.5 86 1.0 NNW 9 13 5 7 - - 0.0
17/09:30pm 7.7 4.9 5.3 85 1.1 NNW 9 11 5 6 - - 0.0
17/09:00pm 8.0 5.6 5.3 83 1.2 NNW 7 9 4 5 - - 0.0
17/08:30pm 7.2 6.1 5.3 88 0.9 CALM 0 0 0 0 - - 0.0
17/08:00pm 7.5 5.5 4.5 81 1.3 N 4 4 2 2 - - 0.0
17/07:30pm 8.7 6.5 5.1 78 1.6 N 6 7 3 4 - - 0.0
17/07:00pm 9.1 6.8 4.9 75 1.9 NNE 6 9 3 5 - - 0.0
17/06:30pm 9.6 7.1 5.0 73 2.1 N 7 9 4 5 - - 0.0
17/06:00pm 10.0 7.1 4.8 70 2.4 NE 9 13 5 7 - - 0.0
17/05:30pm 11.0 8.5 4.9 66 2.8 NNE 7 9 4 5 - - 0.0
17/05:00pm 11.8 7.8 5.0 63 3.2 N 15 20 8 11 - - 0.0
17/04:30pm 12.5 8.5 5.0 60 3.5 N 15 20 8 11 - - 0.0
17/04:00pm 13.1 8.7 4.5 56 4.0 N 17 26 9 14 - - 0.0
17/03:30pm 13.2 7.8 2.7 49 4.7 N 20 28 11 15 - - 0.0
17/03:00pm 13.4 9.4 4.8 56 4.0 N 15 20 8 11 - - 0.0
17/02:30pm 13.6 10.5 5.7 59 3.8 NNE 11 19 6 10 - - 0.0
17/02:00pm 13.3 9.7 5.2 58 3.8 NNE 13 22 7 12 - - 0.0
17/01:30pm 12.8 8.9 5.5 61 3.5 ENE 15 20 8 11 - - 0.0
17/01:00pm 13.0 9.7 6.4 64 3.2 NE 13 20 7 11 - - 0.0
17/12:30pm 12.6 9.6 5.8 63 3.2 E 11 20 6 11 - - 0.0
17/12:00pm 12.0 9.4 5.9 66 2.9 ESE 9 17 5 9 - - 0.0
17/11:30am 12.1 9.6 6.4 68 2.7 SE 9 17 5 9 - - 0.0
17/11:00am 11.1 7.7 5.8 70 2.5 SSE 13 17 7 9 - - 0.0
17/10:30am 10.1 5.9 5.5 73 2.1 SSE 17 24 9 13 - - 0.0
17/10:00am 8.8 3.0 4.4 74 2.0 SSE 24 33 13 18 - - 0.0
17/09:30am 8.2 3.4 4.6 78 1.6 SSE 19 28 10 15 - - 0.0
17/09:00am 7.4 2.5 4.0 79 1.5 SSE 19 26 10 14 - - 1.2
17/08:30am 6.3 1.7 3.6 83 1.2 SSE 17 22 9 12 - - 1.2
17/08:00am 4.7 0.4 3.5 92 0.5 SSE 15 20 8 11 - - 1.2
17/07:30am 3.5 0.3 2.9 96 0.2 SSE 9 13 5 7 - - 1.2
17/07:00am 2.5 -0.5 1.9 96 0.2 SSE 7 11 4 6 - - 1.2
17/06:30am 3.0 1.4 2.3 95 0.3 CALM 0 4 0 2 - - 1.2
17/06:00am 3.9 1.1 3.0 94 0.4 SSE 7 9 4 5 - - 1.2
17/05:30am 3.9 0.7 2.9 93 0.4 S 9 13 5 7 - - 1.2
17/05:00am 4.5 1.9 3.3 92 0.5 S 6 9 3 5 - - 1.2
17/04:30am 5.2 1.8 4.2 93 0.4 SE 11 17 6 9 - - 1.2
17/04:00am 4.4 1.6 3.4 93 0.4 S 7 15 4 8 - - 1.2
17/03:30am 3.8 1.5 2.8 93 0.4 SSE 4 6 2 3 - - 1.2
17/03:00am 3.6 0.3 2.4 92 0.5 SSE 9 15 5 8 - - 1.2
17/02:30am 4.5 2.5 2.2 85 0.9 E 2 4 1 2 - - 1.2
17/02:00am 4.8 2.1 2.7 86 0.9 NNW 6 7 3 4 - - 1.2
17/01:30am 6.2 4.4 3.2 81 1.3 SSE 2 6 1 3 - - 1.0
17/01:00am 6.6 4.0 3.2 79 1.5 ESE 6 13 3 7 - - 1.0
17/12:30am 6.5 3.7 3.3 80 1.4 SSE 7 17 4 9 - - 1.0
17/12:00am 4.9 0.9 3.1 88 0.8 S 13 17 7 9 - - 1.0
 
Date/Time
EST
Temp
°C
App
Temp
°C
Dew
Point
°C
Rel
Hum
%
Delta-T
°C
Wind Press
QNH
hPa
Press
MSL
hPa
Rain since
9am
mm
Dir  Spd
km/h
Gust
km/h
Spd
kts
Gust
kts
16/11:30pm 5.5 3.0 3.5 87 0.9 N 6 11 3 6 - - 1.0
16/11:00pm 6.8 1.9 4.3 84 1.1 S 19 30 10 16 - - 1.0
16/10:30pm 6.8 3.1 4.5 85 1.0 SSW 13 19 7 10 - - 1.0
16/10:00pm 6.0 3.9 4.0 87 0.9 WSW 4 7 2 4 - - 1.0
16/09:30pm 7.1 4.2 4.8 85 1.0 S 9 15 5 8 - - 1.0
16/09:00pm 6.8 4.0 5.0 88 0.8 S 9 15 5 8 - - 1.0
16/08:30pm 7.3 3.8 5.3 87 0.9 S 13 20 7 11 - - 1.0
16/08:00pm 7.4 4.1 4.4 81 1.3 S 11 15 6 8 - - 1.0
16/07:30pm 7.7 4.4 4.3 79 1.5 SSW 11 15 6 8 - - 1.0
16/07:00pm 8.2 4.6 4.8 79 1.5 S 13 24 7 13 - - 1.0
16/06:30pm 8.6 5.5 5.7 82 1.3 S 11 22 6 12 - - 1.0
16/06:00pm 8.8 7.4 7.1 89 0.8 SSE 4 11 2 6 - - 1.0
16/05:30pm 9.5 7.7 8.1 91 0.7 SSE 7 9 4 5 - - 1.0
16/05:00pm 9.6 9.0 7.5 87 1.0 CALM 0 6 0 3 - - 1.0
16/04:30pm 10.0 9.5 7.9 87 1.0 CALM 0 0 0 0 - - 1.0
16/04:00pm 9.6 9.1 8.0 90 0.8 CALM 0 0 0 0 - - 1.0
16/03:30pm 10.0 8.6 7.4 84 1.3 SW 4 6 2 3 - - 0.4
16/03:00pm 11.0 10.2 6.7 75 2.1 CALM 0 2 0 1 - - 0.2
16/02:30pm 10.5 7.8 5.5 71 2.3 N 9 13 5 7 - - 0.2
16/02:00pm 10.4 8.2 6.4 76 1.9 NNE 7 9 4 5 - - 0.2
16/01:30pm 10.3 7.7 6.1 75 2.0 NNE 9 15 5 8 - - 0.2
16/01:00pm 10.2 7.6 6.2 76 1.9 N 9 13 5 7 - - 0.2
16/12:30pm 9.8 7.7 6.7 81 1.5 N 7 15 4 8 - - 0.2
16/12:00pm 9.3 6.8 6.4 82 1.4 N 9 13 5 7 - - 0.2
16/11:30am 8.4 6.2 5.5 82 1.3 N 6 7 3 4 - - 0.2
16/11:00am 7.7 6.4 6.2 90 0.7 SW 2 4 1 2 - - 0.2
16/10:30am 7.1 6.0 5.3 88 0.8 CALM 0 0 0 0 - - 0.2
16/10:00am 6.9 5.8 5.2 89 0.8 CALM 0 0 0 0 - - 0.2
16/09:30am 6.7 4.2 4.7 87 0.9 W 7 13 4 7 - - 0.0
16/09:00am 6.5 4.8 4.0 84 1.1 NNE 2 7 1 4 - - 0.2
16/08:30am 6.1 4.1 4.4 89 0.7 E 4 7 2 4 - - 0.0
16/08:00am 6.4 4.5 3.0 79 1.4 WSW 2 7 1 4 - - 0.0
16/07:30am 6.1 4.7 3.3 82 1.2 CALM 0 2 0 1 - - 0.0
16/07:00am 6.1 3.4 2.9 80 1.3 NE 6 7 3 4 - - 0.0
16/06:30am 6.3 4.8 2.9 79 1.4 CALM 0 4 0 2 - - 0.0
16/06:00am 6.3 3.5 3.1 80 1.4 NNW 7 9 4 5 - - 0.0
16/05:30am 6.2 3.6 3.0 80 1.4 NNW 6 7 3 4 - - 0.0
16/05:00am 6.2 4.0 3.4 82 1.2 N 4 7 2 4 - - 0.0
16/04:30am 6.1 3.5 3.4 83 1.2 N 6 9 3 5 - - 0.0
16/04:00am 6.3 3.2 3.6 83 1.2 NNW 9 13 5 7 - - 0.0
16/03:30am 6.3 3.8 3.8 84 1.1 NNW 6 7 3 4 - - 0.0
16/03:00am 6.4 3.7 3.7 83 1.2 N 7 11 4 6 - - 0.0
16/02:30am 6.8 3.8 3.9 82 1.3 N 9 13 5 7 - - 0.0
16/02:00am 7.0 3.6 4.1 82 1.3 N 11 15 6 8 - - 0.0
16/01:30am 7.3 4.9 4.4 82 1.3 N 6 9 3 5 - - 0.0
16/01:00am 7.4 4.5 4.7 83 1.2 N 9 13 5 7 - - 0.0
16/12:30am 7.5 4.6 4.6 82 1.3 N 9 13 5 7 - - 0.0
16/12:00am 7.8 4.6 4.9 82 1.3 N 11 15 6 8 - - 0.0
 
Date/Time
EST
Temp
°C
App
Temp
°C
Dew
Point
°C
Rel
Hum
%
Delta-T
°C
Wind Press
QNH
hPa
Press
MSL
hPa
Rain since
9am
mm
Dir  Spd
km/h
Gust
km/h
Spd
kts
Gust
kts
15/11:30pm 8.4 4.9 5.3 81 1.4 NNE 13 20 7 11 - - 0.0
15/11:00pm 8.7 5.6 5.6 81 1.4 N 11 17 6 9 - - 0.0
15/10:30pm 9.0 6.4 5.9 81 1.4 NNE 9 17 5 9 - - 0.0
15/10:00pm 9.1 7.2 6.5 84 1.2 NE 6 9 3 5 - - 0.0
15/09:30pm 9.2 7.6 6.5 83 1.3 NNE 4 6 2 3 - - 0.0
15/09:00pm 9.4 7.8 6.5 82 1.4 NNW 4 6 2 3 - - 0.0
15/08:30pm 9.8 8.3 6.7 81 1.5 N 4 6 2 3 - - 0.0
15/08:00pm 9.8 7.9 6.7 81 1.5 N 6 9 3 5 - - 0.0
15/07:30pm 10.2 8.3 6.9 80 1.6 NNE 6 11 3 6 - - 0.0
15/07:00pm 10.4 7.9 6.7 78 1.8 NE 9 13 5 7 - - 0.0
15/06:30pm 11.2 9.0 5.1 66 2.8 ENE 6 9 3 5 - - 0.0
15/06:00pm 11.9 8.9 4.2 59 3.5 NNE 9 13 5 7 - - 0.0
15/05:30pm 12.6 8.9 4.3 57 3.8 NNE 13 19 7 10 - - 0.0
15/05:00pm 13.0 9.4 4.9 58 3.8 N 13 22 7 12 - - 0.0

Other formats

Comma delimited format used in spreadsheet applications
http://www.bom.gov.au/fwo/IDV60801/IDV60801.94856.axf

JavaScript Object Notation format (JSON) in row-major order
http://www.bom.gov.au/fwo/IDV60801/IDV60801.94856.json

Data quality

Most of these data are generated automatically and are frequently updated. Quality checks on data are not normally performed. It is possible for incorrect values to appear. Refer to information at About Latest Weather Observations and please check the disclaimer before using these data.